sensor_id;sensor_type;location;lat;lon;timestamp;P1;durP1;ratioP1;P2;durP2;ratioP2
10977;SDS011;5542;48.272;10.794;2023-06-26T00:02:09;4.15;;;3.80;;
10977;SDS011;5542;48.272;10.794;2023-06-26T00:04:36;4.60;;;4.13;;
10977;SDS011;5542;48.272;10.794;2023-06-26T00:07:02;3.88;;;3.58;;
10977;SDS011;5542;48.272;10.794;2023-06-26T00:09:29;4.20;;;3.90;;
10977;SDS011;5542;48.272;10.794;2023-06-26T00:11:56;4.25;;;3.85;;
10977;SDS011;5542;48.272;10.794;2023-06-26T00:14:24;3.80;;;3.50;;
10977;SDS011;5542;48.272;10.794;2023-06-26T00:16:51;4.18;;;3.78;;
10977;SDS011;5542;48.272;10.794;2023-06-26T00:19:19;3.92;;;3.63;;
10977;SDS011;5542;48.272;10.794;2023-06-26T00:21:45;3.78;;;3.47;;
10977;SDS011;5542;48.272;10.794;2023-06-26T00:24:13;4.13;;;3.75;;
10977;SDS011;5542;48.272;10.794;2023-06-26T00:26:39;5.45;;;4.95;;
10977;SDS011;5542;48.272;10.794;2023-06-26T00:29:06;4.47;;;4.07;;
10977;SDS011;5542;48.272;10.794;2023-06-26T00:31:32;4.22;;;3.83;;
10977;SDS011;5542;48.272;10.794;2023-06-26T00:34:00;4.15;;;3.75;;
10977;SDS011;5542;48.272;10.794;2023-06-26T00:36:28;3.60;;;3.30;;
10977;SDS011;5542;48.272;10.794;2023-06-26T00:38:54;4.30;;;3.90;;
10977;SDS011;5542;48.272;10.794;2023-06-26T00:41:21;4.22;;;3.83;;
10977;SDS011;5542;48.272;10.794;2023-06-26T00:43:48;4.60;;;4.20;;
10977;SDS011;5542;48.272;10.794;2023-06-26T00:46:15;4.10;;;3.80;;
10977;SDS011;5542;48.272;10.794;2023-06-26T00:48:42;3.80;;;3.50;;
10977;SDS011;5542;48.272;10.794;2023-06-26T00:51:10;4.25;;;3.85;;
10977;SDS011;5542;48.272;10.794;2023-06-26T00:53:39;4.15;;;3.75;;
10977;SDS011;5542;48.272;10.794;2023-06-26T00:56:05;3.72;;;3.42;;
10977;SDS011;5542;48.272;10.794;2023-06-26T00:58:34;3.97;;;3.57;;
10977;SDS011;5542;48.272;10.794;2023-06-26T01:01:00;3.50;;;3.20;;
10977;SDS011;5542;48.272;10.794;2023-06-26T01:03:27;3.45;;;3.15;;
10977;SDS011;5542;48.272;10.794;2023-06-26T01:05:54;4.00;;;3.70;;
10977;SDS011;5542;48.272;10.794;2023-06-26T01:08:22;4.40;;;4.00;;
10977;SDS011;5542;48.272;10.794;2023-06-26T01:10:50;4.20;;;3.80;;
10977;SDS011;5542;48.272;10.794;2023-06-26T01:13:17;4.25;;;3.92;;
10977;SDS011;5542;48.272;10.794;2023-06-26T01:15:44;4.25;;;3.85;;
10977;SDS011;5542;48.272;10.794;2023-06-26T01:18:12;4.63;;;4.22;;
10977;SDS011;5542;48.272;10.794;2023-06-26T01:20:40;5.68;;;5.07;;
10977;SDS011;5542;48.272;10.794;2023-06-26T01:23:10;4.90;;;4.40;;
10977;SDS011;5542;48.272;10.794;2023-06-26T01:25:41;4.65;;;4.18;;
10977;SDS011;5542;48.272;10.794;2023-06-26T01:28:21;3.85;;;3.55;;
10977;SDS011;5542;48.272;10.794;2023-06-26T01:30:50;3.73;;;3.43;;
10977;SDS011;5542;48.272;10.794;2023-06-26T01:33:17;3.97;;;3.67;;
10977;SDS011;5542;48.272;10.794;2023-06-26T01:35:44;3.65;;;3.35;;
10977;SDS011;5542;48.272;10.794;2023-06-26T01:38:12;3.50;;;3.20;;
10977;SDS011;5542;48.272;10.794;2023-06-26T01:40:39;3.80;;;3.50;;
10977;SDS011;5542;48.272;10.794;2023-06-26T01:43:06;3.50;;;3.20;;
10977;SDS011;5542;48.272;10.794;2023-06-26T01:45:42;3.70;;;3.40;;
10977;SDS011;5542;48.272;10.794;2023-06-26T01:48:10;3.67;;;3.38;;
10977;SDS011;5542;48.272;10.794;2023-06-26T01:50:39;3.30;;;3.00;;
10977;SDS011;5542;48.272;10.794;2023-06-26T01:53:07;3.97;;;3.58;;
10977;SDS011;5542;48.272;10.794;2023-06-26T01:55:39;3.70;;;3.40;;
10977;SDS011;5542;48.272;10.794;2023-06-26T01:58:10;3.60;;;3.30;;
10977;SDS011;5542;48.272;10.794;2023-06-26T02:00:36;3.70;;;3.40;;
10977;SDS011;5542;48.272;10.794;2023-06-26T02:03:05;4.07;;;3.60;;
10977;SDS011;5542;48.272;10.794;2023-06-26T02:05:32;4.30;;;3.90;;
10977;SDS011;5542;48.272;10.794;2023-06-26T02:07:58;4.40;;;4.00;;
10977;SDS011;5542;48.272;10.794;2023-06-26T02:10:26;4.03;;;3.70;;
10977;SDS011;5542;48.272;10.794;2023-06-26T02:12:53;4.25;;;3.85;;
10977;SDS011;5542;48.272;10.794;2023-06-26T02:15:19;5.72;;;5.18;;
10977;SDS011;5542;48.272;10.794;2023-06-26T02:17:46;4.95;;;4.45;;
10977;SDS011;5542;48.272;10.794;2023-06-26T02:20:14;3.90;;;3.60;;
10977;SDS011;5542;48.272;10.794;2023-06-26T02:22:41;4.22;;;3.83;;
10977;SDS011;5542;48.272;10.794;2023-06-26T02:25:08;3.90;;;3.60;;
10977;SDS011;5542;48.272;10.794;2023-06-26T02:27:35;4.30;;;3.90;;
10977;SDS011;5542;48.272;10.794;2023-06-26T02:30:01;4.80;;;4.40;;
10977;SDS011;5542;48.272;10.794;2023-06-26T02:32:28;4.35;;;3.95;;
10977;SDS011;5542;48.272;10.794;2023-06-26T02:34:55;4.22;;;3.78;;
10977;SDS011;5542;48.272;10.794;2023-06-26T02:37:23;5.93;;;5.18;;
10977;SDS011;5542;48.272;10.794;2023-06-26T02:39:49;5.03;;;4.63;;
10977;SDS011;5542;48.272;10.794;2023-06-26T02:42:16;5.30;;;4.80;;
10977;SDS011;5542;48.272;10.794;2023-06-26T02:44:42;4.60;;;4.20;;
10977;SDS011;5542;48.272;10.794;2023-06-26T02:47:09;6.05;;;5.10;;
10977;SDS011;5542;48.272;10.794;2023-06-26T02:49:35;4.73;;;4.33;;
10977;SDS011;5542;48.272;10.794;2023-06-26T02:52:02;6.37;;;5.63;;
10977;SDS011;5542;48.272;10.794;2023-06-26T02:54:30;5.10;;;4.60;;
10977;SDS011;5542;48.272;10.794;2023-06-26T02:56:57;4.43;;;4.03;;
10977;SDS011;5542;48.272;10.794;2023-06-26T02:59:24;4.22;;;3.83;;
10977;SDS011;5542;48.272;10.794;2023-06-26T03:01:51;7.82;;;6.15;;
10977;SDS011;5542;48.272;10.794;2023-06-26T03:04:18;5.68;;;5.10;;
10977;SDS011;5542;48.272;10.794;2023-06-26T03:06:48;5.25;;;4.75;;
10977;SDS011;5542;48.272;10.794;2023-06-26T03:09:15;5.90;;;5.20;;
10977;SDS011;5542;48.272;10.794;2023-06-26T03:11:43;6.57;;;5.88;;
10977;SDS011;5542;48.272;10.794;2023-06-26T03:14:10;7.00;;;5.83;;
10977;SDS011;5542;48.272;10.794;2023-06-26T03:16:36;6.53;;;5.70;;
10977;SDS011;5542;48.272;10.794;2023-06-26T03:19:03;5.77;;;5.17;;
10977;SDS011;5542;48.272;10.794;2023-06-26T03:21:29;8.27;;;7.33;;
10977;SDS011;5542;48.272;10.794;2023-06-26T03:23:56;6.65;;;5.57;;
10977;SDS011;5542;48.272;10.794;2023-06-26T03:26:22;5.70;;;4.88;;
10977;SDS011;5542;48.272;10.794;2023-06-26T03:28:54;6.75;;;5.55;;
10977;SDS011;5542;48.272;10.794;2023-06-26T03:31:21;6.13;;;5.43;;
10977;SDS011;5542;48.272;10.794;2023-06-26T03:33:48;5.80;;;5.20;;
10977;SDS011;5542;48.272;10.794;2023-06-26T03:36:14;7.25;;;6.47;;
10977;SDS011;5542;48.272;10.794;2023-06-26T03:38:41;7.35;;;6.65;;
10977;SDS011;5542;48.272;10.794;2023-06-26T03:41:08;6.43;;;5.72;;
10977;SDS011;5542;48.272;10.794;2023-06-26T03:43:34;8.60;;;7.15;;
10977;SDS011;5542;48.272;10.794;2023-06-26T03:46:02;6.07;;;5.40;;
10977;SDS011;5542;48.272;10.794;2023-06-26T03:48:29;7.63;;;6.80;;
10977;SDS011;5542;48.272;10.794;2023-06-26T03:50:55;6.18;;;5.57;;
10977;SDS011;5542;48.272;10.794;2023-06-26T03:53:22;6.28;;;5.68;;
10977;SDS011;5542;48.272;10.794;2023-06-26T03:55:48;7.80;;;6.75;;
10977;SDS011;5542;48.272;10.794;2023-06-26T03:58:15;7.45;;;6.75;;
10977;SDS011;5542;48.272;10.794;2023-06-26T04:00:41;7.75;;;6.25;;
10977;SDS011;5542;48.272;10.794;2023-06-26T04:03:09;6.50;;;5.90;;
10977;SDS011;5542;48.272;10.794;2023-06-26T04:05:36;6.85;;;6.15;;
10977;SDS011;5542;48.272;10.794;2023-06-26T04:08:02;8.18;;;6.80;;
10977;SDS011;5542;48.272;10.794;2023-06-26T04:10:29;7.18;;;6.38;;
10977;SDS011;5542;48.272;10.794;2023-06-26T04:12:56;9.30;;;6.95;;
10977;SDS011;5542;48.272;10.794;2023-06-26T04:15:22;6.88;;;6.18;;
10977;SDS011;5542;48.272;10.794;2023-06-26T04:17:49;7.38;;;6.50;;
10977;SDS011;5542;48.272;10.794;2023-06-26T04:20:17;7.43;;;6.57;;
10977;SDS011;5542;48.272;10.794;2023-06-26T04:22:43;6.80;;;6.10;;
10977;SDS011;5542;48.272;10.794;2023-06-26T04:25:10;7.73;;;6.27;;
10977;SDS011;5542;48.272;10.794;2023-06-26T04:27:37;6.53;;;5.93;;
10977;SDS011;5542;48.272;10.794;2023-06-26T04:30:04;8.15;;;6.13;;
10977;SDS011;5542;48.272;10.794;2023-06-26T04:32:32;6.53;;;5.70;;
10977;SDS011;5542;48.272;10.794;2023-06-26T04:34:58;6.38;;;5.78;;
10977;SDS011;5542;48.272;10.794;2023-06-26T04:37:26;6.43;;;5.65;;
10977;SDS011;5542;48.272;10.794;2023-06-26T04:39:53;7.93;;;6.20;;
10977;SDS011;5542;48.272;10.794;2023-06-26T04:42:20;6.45;;;5.85;;
10977;SDS011;5542;48.272;10.794;2023-06-26T04:44:47;6.82;;;5.80;;
10977;SDS011;5542;48.272;10.794;2023-06-26T04:47:13;6.97;;;5.67;;
10977;SDS011;5542;48.272;10.794;2023-06-26T04:49:40;6.10;;;5.50;;
10977;SDS011;5542;48.272;10.794;2023-06-26T04:52:08;6.82;;;5.78;;
10977;SDS011;5542;48.272;10.794;2023-06-26T04:54:36;6.72;;;5.85;;
10977;SDS011;5542;48.272;10.794;2023-06-26T04:57:02;6.47;;;5.70;;
10977;SDS011;5542;48.272;10.794;2023-06-26T04:59:29;6.80;;;5.80;;
10977;SDS011;5542;48.272;10.794;2023-06-26T05:01:56;6.60;;;5.70;;
10977;SDS011;5542;48.272;10.794;2023-06-26T05:04:22;6.13;;;5.38;;
10977;SDS011;5542;48.272;10.794;2023-06-26T05:06:49;7.30;;;6.03;;
10977;SDS011;5542;48.272;10.794;2023-06-26T05:09:15;6.90;;;6.20;;
10977;SDS011;5542;48.272;10.794;2023-06-26T05:11:43;6.93;;;5.80;;
10977;SDS011;5542;48.272;10.794;2023-06-26T05:14:10;7.13;;;6.43;;
10977;SDS011;5542;48.272;10.794;2023-06-26T05:16:38;7.40;;;6.68;;
10977;SDS011;5542;48.272;10.794;2023-06-26T05:19:05;6.35;;;5.70;;
10977;SDS011;5542;48.272;10.794;2023-06-26T05:21:31;7.07;;;6.05;;
10977;SDS011;5542;48.272;10.794;2023-06-26T05:24:00;7.90;;;6.65;;
10977;SDS011;5542;48.272;10.794;2023-06-26T05:26:29;6.25;;;5.65;;
10977;SDS011;5542;48.272;10.794;2023-06-26T05:28:58;7.07;;;5.90;;
10977;SDS011;5542;48.272;10.794;2023-06-26T05:31:25;7.30;;;6.55;;
10977;SDS011;5542;48.272;10.794;2023-06-26T05:33:52;7.05;;;6.20;;
10977;SDS011;5542;48.272;10.794;2023-06-26T05:36:21;6.95;;;6.25;;
10977;SDS011;5542;48.272;10.794;2023-06-26T05:38:50;7.20;;;6.50;;
10977;SDS011;5542;48.272;10.794;2023-06-26T05:41:17;6.38;;;5.75;;
10977;SDS011;5542;48.272;10.794;2023-06-26T05:43:44;6.43;;;5.82;;
10977;SDS011;5542;48.272;10.794;2023-06-26T05:46:12;6.68;;;5.97;;
10977;SDS011;5542;48.272;10.794;2023-06-26T05:48:39;5.95;;;5.32;;
10977;SDS011;5542;48.272;10.794;2023-06-26T05:51:06;6.28;;;5.68;;
10977;SDS011;5542;48.272;10.794;2023-06-26T05:53:33;6.63;;;5.97;;
10977;SDS011;5542;48.272;10.794;2023-06-26T05:56:00;5.97;;;5.37;;
10977;SDS011;5542;48.272;10.794;2023-06-26T05:58:27;5.82;;;5.18;;
10977;SDS011;5542;48.272;10.794;2023-06-26T06:00:54;6.03;;;5.43;;
10977;SDS011;5542;48.272;10.794;2023-06-26T06:03:22;6.05;;;5.40;;
10977;SDS011;5542;48.272;10.794;2023-06-26T06:05:49;7.00;;;6.30;;
10977;SDS011;5542;48.272;10.794;2023-06-26T06:08:15;7.32;;;6.63;;
10977;SDS011;5542;48.272;10.794;2023-06-26T06:10:42;6.78;;;5.35;;
10977;SDS011;5542;48.272;10.794;2023-06-26T06:13:09;6.20;;;5.60;;
10977;SDS011;5542;48.272;10.794;2023-06-26T06:15:35;5.22;;;4.72;;
10977;SDS011;5542;48.272;10.794;2023-06-26T06:18:02;6.20;;;5.60;;
10977;SDS011;5542;48.272;10.794;2023-06-26T06:20:30;5.47;;;4.97;;
10977;SDS011;5542;48.272;10.794;2023-06-26T06:22:56;5.78;;;5.28;;
10977;SDS011;5542;48.272;10.794;2023-06-26T06:25:23;5.95;;;5.35;;
10977;SDS011;5542;48.272;10.794;2023-06-26T06:27:49;5.40;;;4.90;;
10977;SDS011;5542;48.272;10.794;2023-06-26T06:30:16;6.10;;;5.20;;
10977;SDS011;5542;48.272;10.794;2023-06-26T06:32:42;5.40;;;4.90;;
10977;SDS011;5542;48.272;10.794;2023-06-26T06:35:09;5.45;;;4.72;;
10977;SDS011;5542;48.272;10.794;2023-06-26T06:37:37;5.57;;;5.07;;
10977;SDS011;5542;48.272;10.794;2023-06-26T06:40:04;5.05;;;4.55;;
10977;SDS011;5542;48.272;10.794;2023-06-26T06:42:32;5.55;;;4.95;;
10977;SDS011;5542;48.272;10.794;2023-06-26T06:44:59;5.93;;;4.37;;
10977;SDS011;5542;48.272;10.794;2023-06-26T06:47:27;5.35;;;4.82;;
10977;SDS011;5542;48.272;10.794;2023-06-26T06:49:53;5.22;;;4.75;;
10977;SDS011;5542;48.272;10.794;2023-06-26T06:52:20;5.30;;;4.80;;
10977;SDS011;5542;48.272;10.794;2023-06-26T06:54:54;5.05;;;4.55;;
10977;SDS011;5542;48.272;10.794;2023-06-26T06:57:23;5.10;;;4.60;;
10977;SDS011;5542;48.272;10.794;2023-06-26T06:59:50;5.03;;;4.40;;
10977;SDS011;5542;48.272;10.794;2023-06-26T07:02:17;5.20;;;4.70;;
10977;SDS011;5542;48.272;10.794;2023-06-26T07:04:44;4.90;;;4.50;;
10977;SDS011;5542;48.272;10.794;2023-06-26T07:07:11;4.60;;;4.20;;
10977;SDS011;5542;48.272;10.794;2023-06-26T07:09:38;4.70;;;4.30;;
10977;SDS011;5542;48.272;10.794;2023-06-26T07:12:06;5.05;;;4.50;;
10977;SDS011;5542;48.272;10.794;2023-06-26T07:14:33;5.35;;;4.90;;
10977;SDS011;5542;48.272;10.794;2023-06-26T07:17:00;4.72;;;4.30;;
10977;SDS011;5542;48.272;10.794;2023-06-26T07:19:26;5.18;;;4.68;;
10977;SDS011;5542;48.272;10.794;2023-06-26T07:21:53;5.00;;;4.47;;
10977;SDS011;5542;48.272;10.794;2023-06-26T07:24:19;5.00;;;4.50;;
10977;SDS011;5542;48.272;10.794;2023-06-26T07:26:46;5.20;;;4.70;;
10977;SDS011;5542;48.272;10.794;2023-06-26T07:29:14;4.57;;;4.25;;
10977;SDS011;5542;48.272;10.794;2023-06-26T07:31:41;4.57;;;4.18;;
10977;SDS011;5542;48.272;10.794;2023-06-26T07:34:07;5.03;;;4.53;;
10977;SDS011;5542;48.272;10.794;2023-06-26T07:36:34;5.15;;;4.70;;
10977;SDS011;5542;48.272;10.794;2023-06-26T07:39:00;5.10;;;4.70;;
10977;SDS011;5542;48.272;10.794;2023-06-26T07:41:27;5.07;;;4.67;;
10977;SDS011;5542;48.272;10.794;2023-06-26T07:43:55;4.85;;;4.45;;
10977;SDS011;5542;48.272;10.794;2023-06-26T07:46:23;7.38;;;5.13;;
10977;SDS011;5542;48.272;10.794;2023-06-26T07:48:50;5.07;;;4.57;;
10977;SDS011;5542;48.272;10.794;2023-06-26T07:51:16;5.28;;;4.70;;
10977;SDS011;5542;48.272;10.794;2023-06-26T07:53:43;5.00;;;4.50;;
10977;SDS011;5542;48.272;10.794;2023-06-26T07:56:09;5.53;;;4.73;;
10977;SDS011;5542;48.272;10.794;2023-06-26T07:58:36;5.25;;;4.75;;
10977;SDS011;5542;48.272;10.794;2023-06-26T08:01:03;5.00;;;4.60;;
10977;SDS011;5542;48.272;10.794;2023-06-26T08:03:31;4.80;;;4.40;;
10977;SDS011;5542;48.272;10.794;2023-06-26T08:05:57;4.97;;;4.57;;
10977;SDS011;5542;48.272;10.794;2023-06-26T08:08:24;5.00;;;4.53;;
10977;SDS011;5542;48.272;10.794;2023-06-26T08:10:50;5.28;;;4.78;;
10977;SDS011;5542;48.272;10.794;2023-06-26T08:13:17;4.90;;;4.45;;
10977;SDS011;5542;48.272;10.794;2023-06-26T08:15:43;4.95;;;4.55;;
10977;SDS011;5542;48.272;10.794;2023-06-26T08:18:10;4.53;;;4.20;;
10977;SDS011;5542;48.272;10.794;2023-06-26T08:20:38;4.70;;;4.30;;
10977;SDS011;5542;48.272;10.794;2023-06-26T08:23:05;4.97;;;4.50;;
10977;SDS011;5542;48.272;10.794;2023-06-26T08:25:31;4.63;;;4.22;;
10977;SDS011;5542;48.272;10.794;2023-06-26T08:27:58;4.70;;;4.32;;
10977;SDS011;5542;48.272;10.794;2023-06-26T08:30:25;4.85;;;4.45;;
10977;SDS011;5542;48.272;10.794;2023-06-26T08:32:53;4.63;;;4.25;;
10977;SDS011;5542;48.272;10.794;2023-06-26T08:35:20;4.50;;;4.10;;
10977;SDS011;5542;48.272;10.794;2023-06-26T08:37:47;4.93;;;4.53;;
10977;SDS011;5542;48.272;10.794;2023-06-26T08:40:16;4.88;;;4.38;;
10977;SDS011;5542;48.272;10.794;2023-06-26T08:42:43;4.45;;;4.15;;
10977;SDS011;5542;48.272;10.794;2023-06-26T08:45:10;4.60;;;4.20;;
10977;SDS011;5542;48.272;10.794;2023-06-26T08:47:37;4.53;;;4.13;;
10977;SDS011;5542;48.272;10.794;2023-06-26T08:50:07;4.20;;;3.90;;
10977;SDS011;5542;48.272;10.794;2023-06-26T08:52:37;4.38;;;4.00;;
10977;SDS011;5542;48.272;10.794;2023-06-26T08:55:10;4.80;;;4.40;;
10977;SDS011;5542;48.272;10.794;2023-06-26T08:57:38;4.82;;;4.43;;
10977;SDS011;5542;48.272;10.794;2023-06-26T09:00:05;4.50;;;4.10;;
10977;SDS011;5542;48.272;10.794;2023-06-26T09:02:33;4.43;;;4.13;;
10977;SDS011;5542;48.272;10.794;2023-06-26T09:05:01;4.53;;;4.20;;
10977;SDS011;5542;48.272;10.794;2023-06-26T09:07:28;4.90;;;4.40;;
10977;SDS011;5542;48.272;10.794;2023-06-26T09:09:54;4.15;;;3.85;;
10977;SDS011;5542;48.272;10.794;2023-06-26T09:12:22;4.50;;;4.10;;
10977;SDS011;5542;48.272;10.794;2023-06-26T09:14:49;4.53;;;4.13;;
10977;SDS011;5542;48.272;10.794;2023-06-26T09:17:16;4.30;;;4.00;;
10977;SDS011;5542;48.272;10.794;2023-06-26T09:19:44;4.47;;;4.10;;
10977;SDS011;5542;48.272;10.794;2023-06-26T09:22:11;4.50;;;4.15;;
10977;SDS011;5542;48.272;10.794;2023-06-26T09:24:40;4.90;;;4.50;;
10977;SDS011;5542;48.272;10.794;2023-06-26T09:27:07;4.20;;;3.90;;
10977;SDS011;5542;48.272;10.794;2023-06-26T09:29:35;4.00;;;3.70;;
10977;SDS011;5542;48.272;10.794;2023-06-26T09:32:02;4.30;;;3.93;;
10977;SDS011;5542;48.272;10.794;2023-06-26T09:34:31;4.00;;;3.70;;
10977;SDS011;5542;48.272;10.794;2023-06-26T09:36:58;4.27;;;3.97;;
10977;SDS011;5542;48.272;10.794;2023-06-26T09:39:29;4.60;;;4.20;;
10977;SDS011;5542;48.272;10.794;2023-06-26T09:41:56;4.80;;;4.40;;
10977;SDS011;5542;48.272;10.794;2023-06-26T09:44:24;4.40;;;4.10;;
10977;SDS011;5542;48.272;10.794;2023-06-26T09:46:52;4.78;;;4.30;;
10977;SDS011;5542;48.272;10.794;2023-06-26T09:49:21;4.50;;;4.20;;
10977;SDS011;5542;48.272;10.794;2023-06-26T09:51:50;4.78;;;4.28;;
10977;SDS011;5542;48.272;10.794;2023-06-26T09:54:16;4.60;;;4.20;;
10977;SDS011;5542;48.272;10.794;2023-06-26T09:56:43;4.63;;;4.22;;
10977;SDS011;5542;48.272;10.794;2023-06-26T09:59:10;5.15;;;4.75;;
10977;SDS011;5542;48.272;10.794;2023-06-26T10:01:41;4.80;;;4.40;;
10977;SDS011;5542;48.272;10.794;2023-06-26T10:04:12;4.65;;;4.25;;
10977;SDS011;5542;48.272;10.794;2023-06-26T10:06:40;4.85;;;4.40;;
10977;SDS011;5542;48.272;10.794;2023-06-26T10:09:09;4.72;;;4.32;;
10977;SDS011;5542;48.272;10.794;2023-06-26T10:11:39;4.55;;;4.18;;
10977;SDS011;5542;48.272;10.794;2023-06-26T10:14:11;4.55;;;4.25;;
10977;SDS011;5542;48.272;10.794;2023-06-26T10:16:39;4.53;;;4.13;;
10977;SDS011;5542;48.272;10.794;2023-06-26T10:19:08;4.43;;;4.10;;
10977;SDS011;5542;48.272;10.794;2023-06-26T10:21:39;4.65;;;4.28;;
10977;SDS011;5542;48.272;10.794;2023-06-26T10:24:07;4.85;;;4.45;;
10977;SDS011;5542;48.272;10.794;2023-06-26T10:26:37;4.90;;;4.50;;
10977;SDS011;5542;48.272;10.794;2023-06-26T10:29:08;5.00;;;4.60;;
10977;SDS011;5542;48.272;10.794;2023-06-26T10:31:36;4.80;;;4.40;;
10977;SDS011;5542;48.272;10.794;2023-06-26T10:34:04;4.45;;;4.05;;
10977;SDS011;5542;48.272;10.794;2023-06-26T10:36:32;4.35;;;4.00;;
10977;SDS011;5542;48.272;10.794;2023-06-26T10:39:02;4.72;;;4.32;;
10977;SDS011;5542;48.272;10.794;2023-06-26T10:41:35;4.80;;;4.40;;
10977;SDS011;5542;48.272;10.794;2023-06-26T10:44:06;4.25;;;3.95;;
10977;SDS011;5542;48.272;10.794;2023-06-26T10:46:49;4.30;;;4.00;;
10977;SDS011;5542;48.272;10.794;2023-06-26T10:49:17;4.55;;;4.25;;
10977;SDS011;5542;48.272;10.794;2023-06-26T10:51:49;4.05;;;3.75;;
10977;SDS011;5542;48.272;10.794;2023-06-26T10:54:16;4.70;;;4.30;;
10977;SDS011;5542;48.272;10.794;2023-06-26T10:56:44;4.40;;;4.10;;
10977;SDS011;5542;48.272;10.794;2023-06-26T10:59:15;4.63;;;4.22;;
10977;SDS011;5542;48.272;10.794;2023-06-26T11:01:43;4.70;;;4.30;;
10977;SDS011;5542;48.272;10.794;2023-06-26T11:04:11;4.13;;;3.83;;
10977;SDS011;5542;48.272;10.794;2023-06-26T11:06:40;4.57;;;4.18;;
10977;SDS011;5542;48.272;10.794;2023-06-26T11:09:08;4.87;;;4.53;;
10977;SDS011;5542;48.272;10.794;2023-06-26T11:11:55;4.90;;;4.50;;
10977;SDS011;5542;48.272;10.794;2023-06-26T11:14:32;4.40;;;4.10;;
10977;SDS011;5542;48.272;10.794;2023-06-26T11:17:01;4.77;;;4.37;;
10977;SDS011;5542;48.272;10.794;2023-06-26T11:19:29;4.93;;;4.53;;
10977;SDS011;5542;48.272;10.794;2023-06-26T11:22:01;4.60;;;4.30;;
10977;SDS011;5542;48.272;10.794;2023-06-26T11:24:30;4.80;;;4.40;;
10977;SDS011;5542;48.272;10.794;2023-06-26T11:27:01;5.18;;;4.78;;
10977;SDS011;5542;48.272;10.794;2023-06-26T11:29:29;5.10;;;4.60;;
10977;SDS011;5542;48.272;10.794;2023-06-26T11:32:00;4.97;;;4.57;;
10977;SDS011;5542;48.272;10.794;2023-06-26T11:34:30;4.97;;;4.55;;
10977;SDS011;5542;48.272;10.794;2023-06-26T11:36:57;4.80;;;4.40;;
10977;SDS011;5542;48.272;10.794;2023-06-26T11:39:26;5.45;;;4.53;;
10977;SDS011;5542;48.272;10.794;2023-06-26T11:41:54;4.97;;;4.57;;
10977;SDS011;5542;48.272;10.794;2023-06-26T11:44:20;5.10;;;4.70;;
10977;SDS011;5542;48.272;10.794;2023-06-26T11:46:47;4.85;;;4.45;;
10977;SDS011;5542;48.272;10.794;2023-06-26T11:49:20;5.68;;;5.18;;
10977;SDS011;5542;48.272;10.794;2023-06-26T11:51:48;4.53;;;4.15;;
10977;SDS011;5542;48.272;10.794;2023-06-26T11:54:14;4.55;;;4.15;;
10977;SDS011;5542;48.272;10.794;2023-06-26T11:56:41;5.10;;;4.70;;
10977;SDS011;5542;48.272;10.794;2023-06-26T11:59:11;4.90;;;4.53;;
10977;SDS011;5542;48.272;10.794;2023-06-26T12:01:38;5.13;;;4.63;;
10977;SDS011;5542;48.272;10.794;2023-06-26T12:04:07;5.47;;;4.75;;
10977;SDS011;5542;48.272;10.794;2023-06-26T12:06:35;5.18;;;4.78;;
10977;SDS011;5542;48.272;10.794;2023-06-26T12:09:05;5.28;;;4.78;;
10977;SDS011;5542;48.272;10.794;2023-06-26T12:11:37;5.05;;;4.65;;
10977;SDS011;5542;48.272;10.794;2023-06-26T12:14:04;5.20;;;4.78;;
10977;SDS011;5542;48.272;10.794;2023-06-26T12:16:33;5.45;;;4.95;;
10977;SDS011;5542;48.272;10.794;2023-06-26T12:19:00;5.03;;;4.63;;
10977;SDS011;5542;48.272;10.794;2023-06-26T12:21:28;5.03;;;4.63;;
10977;SDS011;5542;48.272;10.794;2023-06-26T12:23:58;5.22;;;4.40;;
10977;SDS011;5542;48.272;10.794;2023-06-26T12:26:25;4.90;;;4.50;;
10977;SDS011;5542;48.272;10.794;2023-06-26T12:28:53;4.95;;;4.55;;
10977;SDS011;5542;48.272;10.794;2023-06-26T12:31:20;5.00;;;4.60;;
10977;SDS011;5542;48.272;10.794;2023-06-26T12:33:48;4.57;;;4.28;;
10977;SDS011;5542;48.272;10.794;2023-06-26T12:36:17;4.22;;;3.92;;
10977;SDS011;5542;48.272;10.794;2023-06-26T12:38:44;4.63;;;4.22;;
10977;SDS011;5542;48.272;10.794;2023-06-26T12:41:12;5.13;;;4.72;;
10977;SDS011;5542;48.272;10.794;2023-06-26T12:43:39;4.97;;;4.57;;
10977;SDS011;5542;48.272;10.794;2023-06-26T12:46:06;4.80;;;4.40;;
10977;SDS011;5542;48.272;10.794;2023-06-26T12:48:36;4.78;;;4.40;;
10977;SDS011;5542;48.272;10.794;2023-06-26T12:51:09;4.70;;;4.30;;
10977;SDS011;5542;48.272;10.794;2023-06-26T12:53:36;4.80;;;4.40;;
10977;SDS011;5542;48.272;10.794;2023-06-26T12:56:04;4.70;;;4.30;;
10977;SDS011;5542;48.272;10.794;2023-06-26T12:58:31;4.70;;;4.40;;
10977;SDS011;5542;48.272;10.794;2023-06-26T13:00:57;4.90;;;4.50;;
10977;SDS011;5542;48.272;10.794;2023-06-26T13:03:24;4.90;;;4.50;;
10977;SDS011;5542;48.272;10.794;2023-06-26T13:05:50;4.40;;;4.10;;
10977;SDS011;5542;48.272;10.794;2023-06-26T13:08:18;5.28;;;4.78;;
10977;SDS011;5542;48.272;10.794;2023-06-26T13:10:47;4.87;;;4.47;;
10977;SDS011;5542;48.272;10.794;2023-06-26T13:13:13;4.85;;;4.45;;
10977;SDS011;5542;48.272;10.794;2023-06-26T13:15:40;4.70;;;4.30;;
10977;SDS011;5542;48.272;10.794;2023-06-26T13:18:07;4.80;;;4.30;;
10977;SDS011;5542;48.272;10.794;2023-06-26T13:20:33;5.20;;;4.70;;
10977;SDS011;5542;48.272;10.794;2023-06-26T13:23:00;5.38;;;4.90;;
10977;SDS011;5542;48.272;10.794;2023-06-26T13:25:28;4.70;;;4.30;;
10977;SDS011;5542;48.272;10.794;2023-06-26T13:27:55;4.65;;;4.25;;
10977;SDS011;5542;48.272;10.794;2023-06-26T13:30:21;3.75;;;3.50;;
10977;SDS011;5542;48.272;10.794;2023-06-26T13:32:48;4.97;;;4.57;;
10977;SDS011;5542;48.272;10.794;2023-06-26T13:35:14;4.40;;;4.10;;
10977;SDS011;5542;48.272;10.794;2023-06-26T13:37:41;4.93;;;4.53;;
10977;SDS011;5542;48.272;10.794;2023-06-26T13:40:08;4.95;;;4.55;;
10977;SDS011;5542;48.272;10.794;2023-06-26T13:42:36;4.80;;;4.30;;
10977;SDS011;5542;48.272;10.794;2023-06-26T13:45:03;5.22;;;4.82;;
10977;SDS011;5542;48.272;10.794;2023-06-26T13:47:31;4.90;;;4.50;;
10977;SDS011;5542;48.272;10.794;2023-06-26T13:49:59;4.55;;;4.15;;
10977;SDS011;5542;48.272;10.794;2023-06-26T13:52:26;4.45;;;4.10;;
10977;SDS011;5542;48.272;10.794;2023-06-26T13:54:52;4.03;;;3.72;;
10977;SDS011;5542;48.272;10.794;2023-06-26T13:57:19;5.00;;;4.60;;
10977;SDS011;5542;48.272;10.794;2023-06-26T13:59:48;4.80;;;4.40;;
10977;SDS011;5542;48.272;10.794;2023-06-26T14:02:15;5.13;;;4.72;;
10977;SDS011;5542;48.272;10.794;2023-06-26T14:04:41;5.18;;;4.68;;
10977;SDS011;5542;48.272;10.794;2023-06-26T14:07:08;4.47;;;4.07;;
10977;SDS011;5542;48.272;10.794;2023-06-26T14:09:35;4.25;;;3.95;;
10977;SDS011;5542;48.272;10.794;2023-06-26T14:12:02;4.97;;;4.50;;
10977;SDS011;5542;48.272;10.794;2023-06-26T14:14:29;4.90;;;4.40;;
10977;SDS011;5542;48.272;10.794;2023-06-26T14:16:57;4.60;;;4.30;;
10977;SDS011;5542;48.272;10.794;2023-06-26T14:19:25;4.88;;;4.47;;
10977;SDS011;5542;48.272;10.794;2023-06-26T14:21:51;4.50;;;4.15;;
10977;SDS011;5542;48.272;10.794;2023-06-26T14:24:18;4.97;;;4.57;;
10977;SDS011;5542;48.272;10.794;2023-06-26T14:26:45;4.72;;;4.40;;
10977;SDS011;5542;48.272;10.794;2023-06-26T14:29:11;4.72;;;4.32;;
10977;SDS011;5542;48.272;10.794;2023-06-26T14:31:42;4.65;;;4.25;;
10977;SDS011;5542;48.272;10.794;2023-06-26T14:34:10;4.80;;;4.40;;
10977;SDS011;5542;48.272;10.794;2023-06-26T14:36:36;6.13;;;4.68;;
10977;SDS011;5542;48.272;10.794;2023-06-26T14:39:03;5.20;;;4.70;;
10977;SDS011;5542;48.272;10.794;2023-06-26T14:41:29;5.10;;;4.70;;
10977;SDS011;5542;48.272;10.794;2023-06-26T14:43:56;4.97;;;4.57;;
10977;SDS011;5542;48.272;10.794;2023-06-26T14:46:22;5.43;;;4.93;;
10977;SDS011;5542;48.272;10.794;2023-06-26T14:48:49;5.45;;;4.95;;
10977;SDS011;5542;48.272;10.794;2023-06-26T14:51:17;5.03;;;4.63;;